createdAt,value
2019-02-20T00:00:08.932Z,99.10
2019-02-20T00:04:15.379Z,98.60
2019-02-20T00:08:20.337Z,99.00
2019-02-20T00:12:26.606Z,99.70
2019-02-20T00:16:33.257Z,99.90
2019-02-20T00:20:39.991Z,99.70
2019-02-20T00:24:44.919Z,99.80
2019-02-20T00:28:50.067Z,99.80
2019-02-20T00:32:56.806Z,99.80
2019-02-20T00:37:02.148Z,99.60
2019-02-20T00:41:10.009Z,99.70
2019-02-20T00:45:31.299Z,99.70
2019-02-20T00:49:41.389Z,99.80
2019-02-20T00:53:52.973Z,99.50
2019-02-20T00:57:58.991Z,99.90
2019-02-20T01:02:06.227Z,99.90
2019-02-20T01:06:11.285Z,99.90
2019-02-20T01:10:19.392Z,99.90
2019-02-20T01:14:25.404Z,99.90
2019-02-20T01:18:30.731Z,99.90
2019-02-20T01:22:36.690Z,99.90
2019-02-20T01:26:43.471Z,99.90
2019-02-20T01:30:49.579Z,99.90
2019-02-20T01:34:54.705Z,99.90
2019-02-20T01:39:01.512Z,99.90
2019-02-20T01:43:06.571Z,99.90
2019-02-20T01:47:12.464Z,99.90
2019-02-20T01:51:19.901Z,99.90
2019-02-20T01:55:26.257Z,99.90
2019-02-20T01:59:32.638Z,99.90
2019-02-20T02:03:39.200Z,99.90
2019-02-20T02:07:44.578Z,99.90
2019-02-20T02:11:50.306Z,99.90
2019-02-20T02:15:57.146Z,99.90
2019-02-20T02:20:02.380Z,99.90
2019-02-20T02:24:08.975Z,99.90
2019-02-20T02:28:15.774Z,99.90
2019-02-20T02:32:22.851Z,99.90
2019-02-20T02:36:27.714Z,99.90
2019-02-20T02:40:33.056Z,99.90
2019-02-20T02:44:38.655Z,99.90
2019-02-20T02:48:43.557Z,99.90
2019-02-20T02:52:55.339Z,99.90
2019-02-20T02:57:00.349Z,99.90
2019-02-20T03:01:06.880Z,99.90
2019-02-20T03:05:12.447Z,99.90
2019-02-20T03:09:17.952Z,99.90
2019-02-20T03:13:23.114Z,99.90
2019-02-20T03:17:30.286Z,99.90
2019-02-20T03:21:36.298Z,99.90
2019-02-20T03:25:42.368Z,99.90
2019-02-20T03:29:48.474Z,99.90
2019-02-20T03:33:55.399Z,99.90
2019-02-20T03:38:02.870Z,99.90
2019-02-20T03:42:10.200Z,99.90
2019-02-20T03:46:16.626Z,99.90
2019-02-20T03:50:22.609Z,99.90
2019-02-20T03:54:30.255Z,99.90
2019-02-20T03:58:35.272Z,99.90
2019-02-20T04:02:41.861Z,99.90
2019-02-20T04:06:49.021Z,99.90
2019-02-20T04:10:57.171Z,99.90
2019-02-20T04:15:02.512Z,99.90
2019-02-20T04:19:08.876Z,99.90
2019-02-20T04:23:14.462Z,99.90
2019-02-20T04:27:19.862Z,99.90
2019-02-20T04:31:25.355Z,99.90
2019-02-20T04:35:30.464Z,99.90
2019-02-20T04:39:37.547Z,99.90
2019-02-20T04:43:43.241Z,99.90
2019-02-20T04:47:49.521Z,99.90
2019-02-20T04:51:56.440Z,99.90
2019-02-20T04:56:01.968Z,99.90
2019-02-20T05:00:08.426Z,99.90
2019-02-20T05:04:14.769Z,99.90
2019-02-20T05:08:19.661Z,99.90
2019-02-20T05:12:25.588Z,99.90
2019-02-20T05:16:31.769Z,99.90
2019-02-20T05:20:37.833Z,99.90
2019-02-20T05:24:43.302Z,99.90
2019-02-20T05:28:48.935Z,99.90
2019-02-20T05:32:55.116Z,99.90
2019-02-20T05:37:01.134Z,99.90
2019-02-20T05:41:07.579Z,99.90
2019-02-20T05:45:13.986Z,99.90
2019-02-20T05:49:20.903Z,99.90
2019-02-20T05:53:26.554Z,99.90
2019-02-20T05:57:33.018Z,99.90
2019-02-20T06:01:37.950Z,99.90
2019-02-20T06:05:43.402Z,99.90
2019-02-20T06:09:48.733Z,99.90
2019-02-20T06:13:54.138Z,99.90
2019-02-20T06:18:01.122Z,99.90
2019-02-20T06:22:07.583Z,99.90
2019-02-20T06:26:14.328Z,99.90
2019-02-20T06:30:20.751Z,99.90
2019-02-20T06:34:26.174Z,99.90
2019-02-20T06:38:33.592Z,99.90
2019-02-20T06:42:39.653Z,99.90
2019-02-20T06:46:45.961Z,99.90
2019-02-20T06:50:51.347Z,99.90
2019-02-20T06:54:57.083Z,99.90
2019-02-20T06:59:02.937Z,99.80
2019-02-20T07:03:08.609Z,99.70
2019-02-20T07:07:39.477Z,99.90
2019-02-20T07:12:20.018Z,98.00
2019-02-20T07:17:18.157Z,97.70
2019-02-20T07:22:07.677Z,97.20
2019-02-20T07:27:11.422Z,97.30
2019-02-20T07:31:17.363Z,96.20
2019-02-20T07:35:23.162Z,94.80
2019-02-20T07:39:29.149Z,93.80
2019-02-20T07:43:34.061Z,95.60
2019-02-20T07:47:40.043Z,92.40
2019-02-20T07:51:46.459Z,93.80
2019-02-20T07:55:55.415Z,94.00
2019-02-20T08:00:00.443Z,91.00
2019-02-20T08:04:05.839Z,88.40
2019-02-20T08:08:11.282Z,82.90
2019-02-20T08:12:16.282Z,83.20
2019-02-20T08:16:22.021Z,83.70
2019-02-20T08:20:28.861Z,83.40
2019-02-20T08:24:35.923Z,84.30
2019-02-20T08:28:42.062Z,83.10
2019-02-20T08:32:50.039Z,80.00
2019-02-20T08:36:57.208Z,78.20
2019-02-20T08:41:03.499Z,76.50
2019-02-20T08:45:09.276Z,74.20
2019-02-20T08:49:14.643Z,73.40
2019-02-20T08:53:20.197Z,71.90
2019-02-20T08:57:27.106Z,70.20
2019-02-20T09:01:33.286Z,68.80
2019-02-20T09:05:38.855Z,62.60
2019-02-20T09:09:43.861Z,64.60
2019-02-20T09:13:49.875Z,61.60
2019-02-20T09:17:55.890Z,60.70
2019-02-20T09:22:01.229Z,59.80
2019-02-20T09:26:06.869Z,56.20
2019-02-20T09:30:13.874Z,56.20
2019-02-20T09:34:20.314Z,54.80
2019-02-20T09:38:25.530Z,55.90
2019-02-20T09:42:30.557Z,56.20
2019-02-20T09:46:36.451Z,55.10
2019-02-20T09:50:43.210Z,54.30
2019-02-20T09:54:49.272Z,54.00
2019-02-20T09:58:54.888Z,54.40
2019-02-20T10:03:00.165Z,52.70
2019-02-20T10:07:09.272Z,53.10
2019-02-20T10:11:16.571Z,52.10
2019-02-20T10:15:25.091Z,52.00
2019-02-20T10:19:30.222Z,51.90
2019-02-20T10:23:36.430Z,52.20
2019-02-20T10:27:41.393Z,52.10
2019-02-20T10:31:49.227Z,50.20
2019-02-20T10:35:56.773Z,50.40
2019-02-20T10:40:01.680Z,50.90
2019-02-20T10:44:07.824Z,51.90
2019-02-20T10:48:13.168Z,51.80
2019-02-20T10:52:19.185Z,50.80
2019-02-20T10:56:24.425Z,50.00
2019-02-20T11:00:31.979Z,49.90
2019-02-20T11:04:36.973Z,50.40
2019-02-20T11:08:43.322Z,48.30
2019-02-20T11:12:50.096Z,48.00
2019-02-20T11:16:57.461Z,48.10
2019-02-20T11:21:02.539Z,48.80
2019-02-20T11:25:14.095Z,48.20
2019-02-20T11:29:19.805Z,46.00
2019-02-20T11:33:25.257Z,44.80
2019-02-20T11:37:30.494Z,44.40
2019-02-20T11:41:36.326Z,42.10
2019-02-20T11:45:42.439Z,42.30
2019-02-20T11:49:48.315Z,40.80
2019-02-20T11:53:54.167Z,38.40
2019-02-20T11:58:01.003Z,35.20
2019-02-20T12:02:08.526Z,33.30
2019-02-20T12:06:13.786Z,31.00
2019-02-20T12:10:20.718Z,30.60
2019-02-20T12:14:26.289Z,30.80
2019-02-20T12:18:33.103Z,29.10
2019-02-20T12:22:39.790Z,30.00
2019-02-20T12:26:45.474Z,31.00
2019-02-20T12:30:51.599Z,31.30
2019-02-20T12:34:58.737Z,30.90
2019-02-20T12:39:06.906Z,32.40
2019-02-20T12:43:11.961Z,35.00
2019-02-20T12:47:17.349Z,34.90
2019-02-20T12:51:22.894Z,34.10
2019-02-20T12:55:29.290Z,35.20
2019-02-20T12:59:34.289Z,34.50
2019-02-20T13:03:40.694Z,35.20
2019-02-20T13:07:47.055Z,35.20
2019-02-20T13:11:53.638Z,33.20
2019-02-20T13:15:59.236Z,32.30
2019-02-20T13:20:05.047Z,30.00
2019-02-20T13:24:12.855Z,29.80
2019-02-20T13:28:18.191Z,31.00
2019-02-20T13:32:23.137Z,31.10
2019-02-20T13:36:28.157Z,30.50
2019-02-20T13:40:33.098Z,31.30
2019-02-20T13:44:38.086Z,32.00
2019-02-20T13:48:43.242Z,34.20
2019-02-20T13:52:52.348Z,35.40
2019-02-20T13:57:01.579Z,34.40
2019-02-20T14:01:01.796Z,35.00
2019-02-20T14:05:07.396Z,37.70
2019-02-20T14:09:15.150Z,39.00
2019-02-20T14:13:21.172Z,40.60
2019-02-20T14:17:26.914Z,41.00
2019-02-20T14:21:32.007Z,40.70
2019-02-20T14:25:37.923Z,41.20
2019-02-20T14:29:42.967Z,42.50
2019-02-20T14:33:47.911Z,43.50
2019-02-20T14:37:52.840Z,42.90
2019-02-20T14:41:57.834Z,43.40
2019-02-20T14:46:02.708Z,43.80
2019-02-20T14:50:08.581Z,44.50
2019-02-20T14:54:13.901Z,46.10
2019-02-20T14:58:19.850Z,46.70
2019-02-20T15:02:25.855Z,46.50
2019-02-20T15:06:31.783Z,48.40
2019-02-20T15:10:36.728Z,49.80
2019-02-20T15:14:41.645Z,51.20
2019-02-20T15:18:46.618Z,51.60
2019-02-20T15:22:51.522Z,52.00
2019-02-20T15:26:56.586Z,53.10
2019-02-20T15:31:02.214Z,51.60
2019-02-20T15:35:07.818Z,54.10
2019-02-20T15:39:13.029Z,56.10
2019-02-20T15:43:17.997Z,57.40
2019-02-20T15:47:22.900Z,58.50
2019-02-20T15:51:27.972Z,59.40
2019-02-20T15:55:32.884Z,60.70
2019-02-20T15:59:38.179Z,61.50
2019-02-20T16:03:43.102Z,62.20
2019-02-20T16:07:48.203Z,63.80
2019-02-20T16:11:53.112Z,65.00
2019-02-20T16:15:58.096Z,65.40
2019-02-20T16:20:02.977Z,66.30
2019-02-20T16:24:08.338Z,67.30
2019-02-20T16:28:13.270Z,68.20
2019-02-20T16:32:18.198Z,68.90
2019-02-20T16:36:23.082Z,69.80
2019-02-20T16:40:28.009Z,70.30
2019-02-20T16:44:33.091Z,71.10
2019-02-20T16:48:38.442Z,71.10
2019-02-20T16:52:43.660Z,71.70
2019-02-20T16:56:48.500Z,72.50
2019-02-20T17:00:53.678Z,73.90
2019-02-20T17:04:59.280Z,73.80
2019-02-20T17:09:07.389Z,75.20
2019-02-20T17:13:12.341Z,75.40
2019-02-20T17:17:17.425Z,76.00
2019-02-20T17:21:22.335Z,76.90
2019-02-20T17:25:27.519Z,77.30
2019-02-20T17:29:32.699Z,77.80
2019-02-20T17:33:37.807Z,78.80
2019-02-20T17:37:42.686Z,79.30
2019-02-20T17:41:47.762Z,79.70
2019-02-20T17:45:53.090Z,80.20
2019-02-20T17:49:58.367Z,80.20
2019-02-20T17:54:03.523Z,80.70
2019-02-20T17:58:14.835Z,81.30
2019-02-20T18:02:15.069Z,82.10
2019-02-20T18:06:19.993Z,82.40
2019-02-20T18:10:25.068Z,83.90
2019-02-20T18:14:29.970Z,84.10
2019-02-20T18:18:34.935Z,85.10
2019-02-20T18:22:39.900Z,85.60
2019-02-20T18:26:44.857Z,85.80
2019-02-20T18:30:49.954Z,86.60
2019-02-20T18:34:54.934Z,87.20
2019-02-20T18:38:59.973Z,87.20
2019-02-20T18:43:04.941Z,88.20
2019-02-20T18:47:09.842Z,88.90
2019-02-20T18:51:15.248Z,89.10
2019-02-20T18:55:20.454Z,89.10
2019-02-20T18:59:25.709Z,89.00
2019-02-20T19:03:30.744Z,90.40
2019-02-20T19:07:36.053Z,90.30
2019-02-20T19:12:02.856Z,90.10
2019-02-20T19:17:01.814Z,90.60
2019-02-20T19:22:02.920Z,90.60
2019-02-20T19:26:42.336Z,90.80
2019-02-20T19:31:23.786Z,91.50
2019-02-20T19:36:14.725Z,91.70
2019-02-20T19:41:18.487Z,91.90
2019-02-20T19:46:00.500Z,91.80
2019-02-20T19:50:29.657Z,92.30
2019-02-20T19:55:16.901Z,92.40
2019-02-20T19:59:54.588Z,92.40
2019-02-20T20:04:08.081Z,92.60
2019-02-20T20:08:35.449Z,92.70
2019-02-20T20:12:59.346Z,92.60
2019-02-20T20:17:16.120Z,93.50
2019-02-20T20:21:58.657Z,93.60
2019-02-20T20:26:36.469Z,93.50
2019-02-20T20:31:20.664Z,94.10
2019-02-20T20:36:15.409Z,94.70
2019-02-20T20:40:44.186Z,94.20
2019-02-20T20:45:04.520Z,93.60
2019-02-20T20:49:53.727Z,94.00
2019-02-20T20:54:37.740Z,93.70
2019-02-20T20:58:55.279Z,93.80
2019-02-20T21:03:05.239Z,94.20
2019-02-20T21:07:38.269Z,94.30
2019-02-20T21:12:26.019Z,94.30
2019-02-20T21:16:53.146Z,94.80
2019-02-20T21:21:51.174Z,94.50
2019-02-20T21:26:26.360Z,94.80
2019-02-20T21:31:21.972Z,94.60
2019-02-20T21:35:59.358Z,95.00
2019-02-20T21:40:26.976Z,95.30
2019-02-20T21:45:13.543Z,95.20
2019-02-20T21:49:49.036Z,95.70
2019-02-20T21:54:20.722Z,95.80
2019-02-20T21:58:50.540Z,95.70
2019-02-20T22:03:51.988Z,96.40
2019-02-20T22:08:09.977Z,96.50
2019-02-20T22:12:50.940Z,97.00
2019-02-20T22:17:22.609Z,96.70
2019-02-20T22:22:02.979Z,96.30
2019-02-20T22:26:47.822Z,96.30
2019-02-20T22:31:38.477Z,96.00
2019-02-20T22:36:08.472Z,96.20
2019-02-20T22:40:36.007Z,96.50
2019-02-20T22:45:13.656Z,96.60
2019-02-20T22:49:53.309Z,97.60
2019-02-20T22:54:41.946Z,97.00
2019-02-20T22:59:20.295Z,97.40
2019-02-20T23:03:34.364Z,98.10
2019-02-20T23:08:31.847Z,99.30
2019-02-20T23:13:22.522Z,99.90
2019-02-20T23:17:27.715Z,99.90
2019-02-20T23:21:32.902Z,99.90
2019-02-20T23:25:37.828Z,99.90
2019-02-20T23:29:42.763Z,99.90
2019-02-20T23:33:47.649Z,99.90
2019-02-20T23:37:52.589Z,99.90
2019-02-20T23:41:57.609Z,99.90
2019-02-20T23:46:02.526Z,99.90
2019-02-20T23:50:07.725Z,99.90
2019-02-20T23:54:12.617Z,99.90
2019-02-20T23:58:17.573Z,99.90
